Time;durP1;ratioP1;P1;durP2;ratioP2;P2;SDS_P1;SDS_P2;PMS_P1;PMS_P2;Temp;Humidity;BMP_temperature;BMP_pressure;BME280_temperature;BME280_humidity;BME280_pressure;Samples;Min_cycle;Max_cycle;Signal;HPM_P1;HPM_P2
2022/02/22 00:01:52;;;;;;;27.98;5.22;;;23.10;99.90;;;;;;5034963;28;20052;-64
2022/02/22 00:04:20;;;;;;;27.08;5.53;;;23.10;99.90;;;;;;5032846;28;20037;-64
2022/02/22 00:06:47;;;;;;;28.52;5.68;;;23.10;99.90;;;;;;5038557;28;20404;-65
2022/02/22 00:09:14;;;;;;;27.83;5.07;;;23.10;99.90;;;;;;5027789;28;20037;-65
2022/02/22 00:11:42;;;;;;;32.28;6.75;;;23.00;99.90;;;;;;5044169;28;20022;-66
2022/02/22 00:14:11;;;;;;;29.40;6.70;;;23.00;99.90;;;;;;5031995;28;20100;-65
2022/02/22 00:16:38;;;;;;;22.02;5.63;;;23.00;99.90;;;;;;5032059;28;20022;-65
2022/02/22 00:19:05;;;;;;;34.60;6.05;;;23.00;99.90;;;;;;5015022;28;20056;-66
2022/02/22 00:21:33;;;;;;;34.28;6.85;;;22.90;99.90;;;;;;5050867;28;20111;-66
2022/02/22 00:24:00;;;;;;;28.20;6.07;;;22.90;99.90;;;;;;5016488;28;20413;-66
2022/02/22 00:26:27;;;;;;;26.58;5.72;;;22.90;99.90;;;;;;5028134;28;20128;-65
2022/02/22 00:28:54;;;;;;;38.40;7.22;;;22.90;99.90;;;;;;5032421;28;20029;-66
2022/02/22 00:31:22;;;;;;;33.13;5.93;;;22.90;99.90;;;;;;4998020;28;20083;-65
2022/02/22 00:33:49;;;;;;;28.85;6.97;;;22.80;99.90;;;;;;5032238;28;20036;-66
2022/02/22 00:36:17;;;;;;;30.40;6.88;;;22.90;99.90;;;;;;5016503;28;20034;-66
2022/02/22 00:38:44;;;;;;;29.60;6.60;;;22.90;99.90;;;;;;5012728;28;20090;-66
2022/02/22 00:41:11;;;;;;;24.95;5.15;;;22.90;99.90;;;;;;5026366;28;20108;-66
2022/02/22 00:43:38;;;;;;;27.73;6.18;;;22.70;99.90;;;;;;5018793;28;20041;-66
2022/02/22 00:46:06;;;;;;;27.98;6.38;;;22.60;99.90;;;;;;5027344;28;20518;-65
2022/02/22 00:48:33;;;;;;;37.13;7.53;;;22.50;99.90;;;;;;5032454;28;20021;-66
2022/02/22 00:51:00;;;;;;;28.40;6.32;;;22.40;99.90;;;;;;5035643;28;20116;-66
2022/02/22 00:53:28;;;;;;;31.00;6.35;;;22.40;99.90;;;;;;5029074;28;20111;-66
2022/02/22 00:55:55;;;;;;;36.50;7.05;;;22.40;99.90;;;;;;5028800;28;20049;-66
2022/02/22 00:58:22;;;;;;;38.22;6.82;;;22.40;99.90;;;;;;5000093;28;20382;-66
2022/02/22 01:00:49;;;;;;;28.08;5.90;;;22.40;99.90;;;;;;5035479;28;20087;-66
2022/02/22 01:03:17;;;;;;;32.92;6.22;;;22.40;99.90;;;;;;5028644;28;20109;-66
2022/02/22 01:05:44;;;;;;;35.83;6.63;;;22.40;99.90;;;;;;5046528;28;20028;-66
2022/02/22 01:08:11;;;;;;;30.13;6.75;;;22.40;99.90;;;;;;5041971;28;20037;-66
2022/02/22 01:10:39;;;;;;;25.67;4.30;;;22.40;99.90;;;;;;5020670;28;20041;-66
2022/02/22 01:13:06;;;;;;;21.33;4.30;;;22.30;99.90;;;;;;5033094;28;20038;-66
2022/02/22 01:15:33;;;;;;;20.85;4.25;;;22.20;99.90;;;;;;5037967;28;20021;-67
2022/02/22 01:18:00;;;;;;;23.63;5.68;;;22.20;99.90;;;;;;5030465;28;20434;-66
2022/02/22 01:20:28;;;;;;;27.75;4.95;;;22.20;99.90;;;;;;5025699;28;20081;-66
2022/02/22 01:22:56;;;;;;;28.13;6.20;;;22.20;99.90;;;;;;5015828;28;20030;-66
2022/02/22 01:25:29;;;;;;;28.05;5.70;;;22.20;99.90;;;;;;5024729;28;20084;-66
2022/02/22 01:27:56;;;;;;;25.13;5.35;;;22.30;99.90;;;;;;5022452;28;20105;-66
2022/02/22 01:30:24;;;;;;;24.30;5.78;;;22.30;99.90;;;;;;5027091;28;20026;-66
2022/02/22 01:32:51;;;;;;;27.35;5.32;;;22.30;99.90;;;;;;5034333;28;20032;-67
2022/02/22 01:35:18;;;;;;;33.53;5.22;;;22.30;99.90;;;;;;5033469;28;20036;-68
2022/02/22 01:37:45;;;;;;;25.65;4.72;;;22.30;99.90;;;;;;5033693;28;20512;-68
2022/02/22 01:40:14;;;;;;;33.95;6.78;;;22.30;99.90;;;;;;5030011;28;20025;-68
2022/02/22 01:42:41;;;;;;;27.80;5.82;;;22.30;99.90;;;;;;5034852;28;20048;-68
2022/02/22 01:45:09;;;;;;;28.60;4.88;;;22.40;99.90;;;;;;5034163;28;20100;-68
2022/02/22 01:47:37;;;;;;;18.73;4.93;;;22.10;99.90;;;;;;5034234;28;20108;-68
2022/02/22 01:50:05;;;;;;;22.80;5.00;;;21.90;99.90;;;;;;5029826;28;20086;-68
2022/02/22 01:52:32;;;;;;;23.30;4.65;;;21.90;99.90;;;;;;5031666;28;20101;-68
2022/02/22 01:55:00;;;;;;;23.05;5.35;;;21.80;99.90;;;;;;5034103;28;20144;-68
2022/02/22 01:57:27;;;;;;;13.68;4.63;;;21.50;99.90;;;;;;5032968;28;20076;-68
2022/02/22 01:59:55;;;;;;;18.55;4.38;;;21.60;99.90;;;;;;5020519;28;20017;-68
2022/02/22 02:02:22;;;;;;;19.77;4.88;;;21.50;99.90;;;;;;5017049;28;20044;-67
2022/02/22 02:04:50;;;;;;;17.02;4.28;;;21.50;99.90;;;;;;5034542;28;20017;-68
2022/02/22 02:07:17;;;;;;;12.52;3.25;;;21.30;99.90;;;;;;5027305;28;20114;-68
2022/02/22 02:09:44;;;;;;;10.68;2.63;;;21.00;99.90;;;;;;5032130;28;20045;-68
2022/02/22 02:12:12;;;;;;;10.35;3.47;;;20.80;99.90;;;;;;5025009;28;20029;-68
2022/02/22 02:14:39;;;;;;;14.18;3.97;;;20.70;99.90;;;;;;5030370;28;20462;-68
2022/02/22 02:17:06;;;;;;;10.40;3.92;;;20.60;99.90;;;;;;5032052;28;20025;-68
2022/02/22 02:19:33;;;;;;;10.07;3.55;;;20.60;99.90;;;;;;5032734;28;20041;-68
2022/02/22 02:22:01;;;;;;;12.32;3.55;;;20.60;99.90;;;;;;5034050;28;20025;-69
2022/02/22 02:24:29;;;;;;;17.48;4.00;;;20.50;99.90;;;;;;5028001;28;20026;-68
2022/02/22 02:26:57;;;;;;;11.30;3.30;;;20.50;99.90;;;;;;5032248;28;20033;-67
2022/02/22 02:29:27;;;;;;;14.77;4.20;;;20.60;99.90;;;;;;5033920;28;20025;-67
2022/02/22 02:31:56;;;;;;;16.10;4.25;;;20.70;99.90;;;;;;5026774;28;20343;-67
2022/02/22 02:34:29;;;;;;;25.33;4.95;;;20.80;99.90;;;;;;5016144;28;20083;-66
2022/02/22 02:36:57;;;;;;;15.18;3.90;;;20.70;99.90;;;;;;5034760;28;20497;-67
2022/02/22 02:39:24;;;;;;;13.98;4.65;;;20.80;99.90;;;;;;5032572;28;20029;-67
2022/02/22 02:41:52;;;;;;;15.38;4.40;;;20.60;99.90;;;;;;5025477;28;20496;-67
2022/02/22 02:44:22;;;;;;;14.48;3.95;;;20.50;99.90;;;;;;5033904;28;20120;-66
2022/02/22 02:46:50;;;;;;;15.25;4.68;;;20.40;99.90;;;;;;5026487;28;20393;-67
2022/02/22 02:49:18;;;;;;;26.30;6.28;;;20.50;99.90;;;;;;5031670;28;20108;-67
2022/02/22 02:51:46;;;;;;;31.55;6.20;;;20.50;99.90;;;;;;5033948;28;20029;-67
2022/02/22 02:54:14;;;;;;;36.53;7.30;;;20.40;99.90;;;;;;5032667;28;20408;-67
2022/02/22 02:56:41;;;;;;;34.60;6.75;;;20.40;99.90;;;;;;5033707;28;20120;-63
2022/02/22 02:59:10;;;;;;;23.30;4.43;;;20.10;99.90;;;;;;5030643;28;20033;-62
2022/02/22 03:01:41;;;;;;;19.13;5.00;;;20.10;99.90;;;;;;5022351;28;20489;-62
2022/02/22 03:04:08;;;;;;;23.48;4.85;;;20.10;99.90;;;;;;5030011;28;20383;-63
2022/02/22 03:06:35;;;;;;;18.33;3.55;;;20.10;99.90;;;;;;5024973;28;20029;-63
2022/02/22 03:09:04;;;;;;;21.40;3.75;;;20.20;99.90;;;;;;5031020;28;20026;-62
2022/02/22 03:11:32;;;;;;;15.45;2.85;;;20.10;99.90;;;;;;5026127;28;20490;-63
2022/02/22 03:13:59;;;;;;;20.48;3.30;;;20.10;99.90;;;;;;5032145;28;20037;-63
2022/02/22 03:16:27;;;;;;;17.40;3.55;;;20.20;99.90;;;;;;5030459;28;20517;-64
2022/02/22 03:18:54;;;;;;;13.38;3.88;;;20.30;99.90;;;;;;5032212;28;20032;-63
2022/02/22 03:21:21;;;;;;;14.23;2.92;;;20.30;99.90;;;;;;5029015;28;20017;-64
2022/02/22 03:23:49;;;;;;;12.52;3.15;;;20.40;99.90;;;;;;5023403;28;20044;-64
2022/02/22 03:26:16;;;;;;;12.48;2.67;;;20.40;99.90;;;;;;5018042;28;20025;-64
2022/02/22 03:28:43;;;;;;;16.85;3.47;;;20.40;99.90;;;;;;5014956;28;20128;-64
2022/02/22 03:31:11;;;;;;;11.43;2.53;;;20.40;99.90;;;;;;5032342;28;20397;-63
2022/02/22 03:33:38;;;;;;;13.93;3.28;;;20.50;99.90;;;;;;5033102;28;20025;-63
2022/02/22 03:36:06;;;;;;;16.77;3.63;;;20.40;99.90;;;;;;5029443;28;20029;-63
2022/02/22 03:38:33;;;;;;;18.33;3.22;;;20.40;99.90;;;;;;5034643;28;20029;-63
2022/02/22 03:41:02;;;;;;;14.07;3.78;;;20.40;99.90;;;;;;5033603;28;20052;-63
2022/02/22 03:43:30;;;;;;;16.17;3.22;;;20.40;99.90;;;;;;5026380;28;20088;-63
2022/02/22 03:45:57;;;;;;;8.75;2.17;;;20.50;99.90;;;;;;5035006;28;20061;-64
2022/02/22 03:48:24;;;;;;;11.52;2.20;;;20.60;99.90;;;;;;5034544;28;20036;-63
2022/02/22 03:50:52;;;;;;;12.45;3.35;;;20.60;99.90;;;;;;5033128;28;20053;-64
2022/02/22 03:53:19;;;;;;;12.00;2.97;;;20.60;99.90;;;;;;5018245;28;20030;-64
2022/02/22 03:55:47;;;;;;;8.70;2.47;;;20.60;99.90;;;;;;5033345;28;20509;-64
2022/02/22 03:58:14;;;;;;;9.18;2.25;;;20.60;99.90;;;;;;5033511;28;20032;-64
2022/02/22 04:00:41;;;;;;;12.82;2.20;;;20.60;99.90;;;;;;5033146;28;20433;-64
2022/02/22 04:03:12;;;;;;;11.13;3.08;;;20.60;99.90;;;;;;5034421;28;20065;-64
2022/02/22 04:05:39;;;;;;;10.88;1.95;;;20.60;99.90;;;;;;5034694;28;20083;-64
2022/02/22 04:08:07;;;;;;;10.82;2.00;;;20.50;99.90;;;;;;5033223;28;20036;-64
2022/02/22 04:10:34;;;;;;;9.02;1.40;;;20.50;99.90;;;;;;5030792;28;20425;-64
2022/02/22 04:13:01;;;;;;;10.85;1.73;;;20.50;99.90;;;;;;5045906;28;20080;-64
2022/02/22 04:15:29;;;;;;;8.45;1.98;;;20.50;99.90;;;;;;5033473;28;20114;-64
2022/02/22 04:17:56;;;;;;;9.30;2.60;;;20.50;99.90;;;;;;5020232;28;20088;-64
2022/02/22 04:20:23;;;;;;;7.47;2.30;;;20.50;99.90;;;;;;5037823;28;20029;-64
2022/02/22 04:22:51;;;;;;;9.52;2.03;;;20.50;99.90;;;;;;5040403;28;20082;-64
2022/02/22 04:25:18;;;;;;;9.80;2.67;;;20.50;99.90;;;;;;5037063;28;20025;-64
2022/02/22 04:27:46;;;;;;;8.82;1.75;;;20.50;99.90;;;;;;5017826;28;20030;-66
2022/02/22 04:30:13;;;;;;;10.63;2.13;;;20.50;99.90;;;;;;5003287;28;20029;-67
2022/02/22 04:32:41;;;;;;;12.68;2.65;;;20.60;99.90;;;;;;5015793;28;20041;-67
2022/02/22 04:35:09;;;;;;;12.00;2.33;;;20.60;99.90;;;;;;5034826;28;20108;-67
2022/02/22 04:37:36;;;;;;;11.57;2.10;;;20.60;99.90;;;;;;5033168;28;20462;-67
2022/02/22 04:40:05;;;;;;;5.57;1.50;;;20.50;99.90;;;;;;5034800;28;20028;-67
2022/02/22 04:42:33;;;;;;;13.13;2.25;;;20.60;99.90;;;;;;5037729;28;20128;-67
2022/02/22 04:45:00;;;;;;;9.38;2.15;;;20.60;99.90;;;;;;5036420;28;20017;-67
2022/02/22 04:47:27;;;;;;;11.05;2.08;;;20.50;99.90;;;;;;5037387;28;20021;-67
2022/02/22 04:49:54;;;;;;;10.48;2.60;;;20.60;99.90;;;;;;5037426;28;20030;-67
2022/02/22 04:52:22;;;;;;;11.32;2.85;;;20.60;99.90;;;;;;5024939;28;20029;-67
2022/02/22 04:54:49;;;;;;;7.35;2.20;;;20.70;99.90;;;;;;5031881;28;20076;-66
2022/02/22 04:57:16;;;;;;;12.00;2.60;;;20.80;99.90;;;;;;5034749;28;20034;-67
2022/02/22 04:59:44;;;;;;;13.32;2.50;;;20.80;99.90;;;;;;5024157;28;20101;-67
2022/02/22 05:02:11;;;;;;;15.65;3.13;;;20.80;99.90;;;;;;5035348;28;20477;-67
2022/02/22 05:04:38;;;;;;;9.10;2.60;;;20.80;99.90;;;;;;5037088;28;20028;-67
2022/02/22 05:07:05;;;;;;;14.10;3.35;;;20.70;99.90;;;;;;5030337;28;20056;-67
2022/02/22 05:09:33;;;;;;;12.93;2.65;;;20.70;99.90;;;;;;5030331;28;20806;-67
2022/02/22 05:12:00;;;;;;;10.45;2.95;;;20.80;99.90;;;;;;5022380;28;20017;-67
2022/02/22 05:14:27;;;;;;;11.48;3.00;;;20.80;99.90;;;;;;5033958;28;20058;-67
2022/02/22 05:16:54;;;;;;;11.90;2.75;;;20.80;99.90;;;;;;5033237;28;20032;-67
2022/02/22 05:19:22;;;;;;;20.70;4.18;;;20.80;99.90;;;;;;5033061;28;20033;-67
2022/02/22 05:21:49;;;;;;;20.90;7.75;;;20.90;99.90;;;;;;5035975;28;20037;-67
2022/02/22 05:24:16;;;;;;;22.60;6.70;;;20.90;99.90;;;;;;5035057;28;20033;-67
2022/02/22 05:26:43;;;;;;;13.82;3.38;;;20.80;99.90;;;;;;5034931;28;20084;-66
2022/02/22 05:29:11;;;;;;;18.98;3.70;;;20.90;99.90;;;;;;5037883;28;20033;-66
2022/02/22 05:31:38;;;;;;;17.27;4.13;;;20.90;99.90;;;;;;5024148;28;20029;-66
2022/02/22 05:34:05;;;;;;;12.93;3.53;;;21.00;99.90;;;;;;5029766;28;20029;-67
2022/02/22 05:36:33;;;;;;;13.38;3.53;;;21.00;99.90;;;;;;5008451;28;20112;-67
2022/02/22 05:39:00;;;;;;;12.90;3.40;;;21.10;99.90;;;;;;5003321;28;20086;-67
2022/02/22 05:41:27;;;;;;;20.05;3.60;;;21.00;99.90;;;;;;5034543;28;20021;-65
2022/02/22 05:43:58;;;;;;;18.60;4.07;;;21.00;99.90;;;;;;5037671;28;20108;-65
2022/02/22 05:46:25;;;;;;;12.85;2.80;;;21.00;99.90;;;;;;5018858;28;20053;-64
2022/02/22 05:48:53;;;;;;;8.85;2.30;;;20.90;99.90;;;;;;5036456;28;20028;-65
2022/02/22 05:51:20;;;;;;;13.68;3.40;;;20.80;99.90;;;;;;5033646;28;22480;-66
2022/02/22 05:53:48;;;;;;;11.43;2.67;;;20.80;99.90;;;;;;5026630;28;20080;-66
2022/02/22 05:56:15;;;;;;;15.18;3.22;;;20.80;99.90;;;;;;5030779;28;20037;-66
2022/02/22 05:58:43;;;;;;;12.07;2.85;;;20.80;99.90;;;;;;5034685;28;20033;-65
2022/02/22 06:01:10;;;;;;;13.57;2.40;;;20.80;99.90;;;;;;5035133;28;20029;-65
2022/02/22 06:03:38;;;;;;;10.80;2.30;;;20.80;99.90;;;;;;5033533;28;20068;-65
2022/02/22 06:06:05;;;;;;;14.00;1.92;;;20.70;99.90;;;;;;5046035;28;20634;-67
2022/02/22 06:08:32;;;;;;;10.43;2.40;;;20.70;99.90;;;;;;5032673;28;20499;-67
2022/02/22 06:10:59;;;;;;;10.90;3.00;;;20.80;99.90;;;;;;5033452;28;20117;-67
2022/02/22 06:13:27;;;;;;;8.55;2.60;;;20.70;99.90;;;;;;5034462;28;20358;-66
2022/02/22 06:15:54;;;;;;;14.65;3.58;;;20.60;99.90;;;;;;5034510;28;20495;-67
2022/02/22 06:18:21;;;;;;;11.32;3.28;;;20.60;99.90;;;;;;5034563;28;20399;-67
2022/02/22 06:20:48;;;;;;;13.82;4.03;;;20.60;99.90;;;;;;5037272;28;20036;-67
2022/02/22 06:23:16;;;;;;;16.92;4.25;;;20.60;99.90;;;;;;5031232;28;20080;-66
2022/02/22 06:25:43;;;;;;;13.13;3.45;;;20.70;99.90;;;;;;5040884;28;20002;-65
2022/02/22 06:28:11;;;;;;;14.10;3.08;;;20.70;99.90;;;;;;5057202;28;20052;-64
2022/02/22 06:30:39;;;;;;;14.88;3.83;;;20.80;99.90;;;;;;5057354;28;20021;-64
2022/02/22 06:33:06;;;;;;;19.98;4.00;;;20.80;99.90;;;;;;5057866;28;20021;-64
2022/02/22 06:35:33;;;;;;;16.50;4.22;;;20.80;99.90;;;;;;5059568;28;20021;-64
2022/02/22 06:38:00;;;;;;;12.07;3.40;;;20.80;99.90;;;;;;5059378;28;20021;-64
2022/02/22 06:40:29;;;;;;;12.43;3.78;;;20.90;99.90;;;;;;5060833;28;20017;-64
2022/02/22 06:42:56;;;;;;;14.15;4.93;;;20.90;99.90;;;;;;5058529;28;20021;-64
2022/02/22 06:45:23;;;;;;;15.15;5.85;;;20.90;99.90;;;;;;5059093;28;20025;-64
2022/02/22 06:47:51;;;;;;;15.10;4.55;;;20.90;99.90;;;;;;5056355;28;20032;-64
2022/02/22 06:50:18;;;;;;;21.17;5.53;;;20.80;99.90;;;;;;5056901;28;20020;-64
2022/02/22 06:52:49;;;;;;;17.63;6.75;;;20.70;99.90;;;;;;5048781;28;20017;-63
2022/02/22 06:55:16;;;;;;;17.67;5.35;;;20.70;99.90;;;;;;5056619;28;20040;-65
2022/02/22 06:58:10;;;;;;;12.00;4.90;;;20.70;99.90;;;;;;5043965;28;20072;-67
2022/02/22 07:00:48;;;;;;;14.93;4.70;;;20.80;99.90;;;;;;5011128;28;20045;-66
2022/02/22 07:03:16;;;;;;;16.30;4.82;;;20.90;99.90;;;;;;5020790;28;20120;-66
2022/02/22 07:05:44;;;;;;;9.73;4.10;;;20.80;99.90;;;;;;5025554;28;20028;-66
2022/02/22 07:08:11;;;;;;;14.50;4.60;;;20.80;99.90;;;;;;5031211;28;20085;-67
2022/02/22 07:10:38;;;;;;;14.77;4.32;;;20.90;99.90;;;;;;5034039;28;20025;-67
2022/02/22 07:13:06;;;;;;;19.02;5.20;;;20.90;99.90;;;;;;5033779;28;20658;-67
2022/02/22 07:15:33;;;;;;;12.13;4.38;;;21.00;99.90;;;;;;5032003;28;20042;-67
2022/02/22 07:18:06;;;;;;;11.25;4.68;;;20.90;99.90;;;;;;5033529;28;20036;-67
2022/02/22 07:20:34;;;;;;;10.43;3.85;;;21.00;99.90;;;;;;5033028;28;20017;-67
2022/02/22 07:23:01;;;;;;;10.88;3.15;;;20.90;99.90;;;;;;5031786;28;20370;-65
2022/02/22 07:25:30;;;;;;;12.05;3.97;;;20.90;99.90;;;;;;5036055;28;20111;-65
2022/02/22 07:27:59;;;;;;;10.65;3.30;;;20.90;99.90;;;;;;5033337;28;20083;-66
2022/02/22 07:30:27;;;;;;;13.93;4.13;;;20.90;99.90;;;;;;5032958;28;20018;-66
2022/02/22 07:33:00;;;;;;;12.50;4.95;;;20.90;99.90;;;;;;5033168;28;20032;-65
2022/02/22 07:35:29;;;;;;;16.17;4.53;;;20.80;99.90;;;;;;5032393;28;20080;-66
2022/02/22 07:37:57;;;;;;;15.98;3.67;;;20.80;99.90;;;;;;5027896;28;20022;-65
2022/02/22 07:40:26;;;;;;;11.93;3.95;;;20.90;99.90;;;;;;5029214;28;20037;-66
2022/02/22 07:42:53;;;;;;;14.15;3.25;;;20.90;99.90;;;;;;5029820;28;20080;-66
2022/02/22 07:45:21;;;;;;;12.90;4.68;;;20.90;99.90;;;;;;5031268;28;20021;-66
2022/02/22 07:47:48;;;;;;;23.15;5.13;;;20.90;99.90;;;;;;5031655;28;20029;-66
2022/02/22 07:50:15;;;;;;;12.95;3.03;;;20.90;99.90;;;;;;5032708;28;20040;-65
2022/02/22 07:52:43;;;;;;;19.15;3.85;;;20.90;99.90;;;;;;5031653;28;20017;-65
2022/02/22 07:55:10;;;;;;;21.17;3.15;;;20.90;99.90;;;;;;5030789;28;20045;-65
2022/02/22 07:57:38;;;;;;;21.00;4.25;;;20.80;99.90;;;;;;5031212;28;20553;-65
2022/02/22 08:00:08;;;;;;;10.32;2.88;;;20.80;99.90;;;;;;5031734;28;20021;-66
2022/02/22 08:02:35;;;;;;;11.10;3.25;;;20.80;99.90;;;;;;5032205;28;20033;-66
2022/02/22 08:05:03;;;;;;;13.52;2.60;;;20.70;99.90;;;;;;5030395;28;20013;-65
2022/02/22 08:07:30;;;;;;;10.98;2.17;;;20.80;99.90;;;;;;5025021;28;20032;-66
2022/02/22 08:09:58;;;;;;;14.02;1.95;;;20.80;99.90;;;;;;5031175;28;20028;-66
2022/02/22 08:12:25;;;;;;;11.02;1.85;;;20.80;99.90;;;;;;5031192;28;20410;-65
2022/02/22 08:14:52;;;;;;;7.78;1.42;;;20.80;99.90;;;;;;5030931;28;20496;-65
2022/02/22 08:17:19;;;;;;;11.52;2.22;;;20.80;99.90;;;;;;5024038;28;20033;-66
2022/02/22 08:19:47;;;;;;;7.80;1.70;;;20.70;99.90;;;;;;5028446;28;20494;-66
2022/02/22 08:22:14;;;;;;;8.85;2.15;;;20.70;99.90;;;;;;5031781;28;20465;-66
2022/02/22 08:24:41;;;;;;;7.30;1.67;;;20.70;99.90;;;;;;5031920;28;20029;-65
2022/02/22 08:27:08;;;;;;;14.38;1.90;;;20.60;99.90;;;;;;5031631;28;20025;-65
2022/02/22 08:29:36;;;;;;;7.82;1.63;;;20.50;99.90;;;;;;5031552;28;20030;-65
2022/02/22 08:32:03;;;;;;;12.40;1.75;;;20.50;99.90;;;;;;5031673;28;20021;-65
2022/02/22 08:34:31;;;;;;;11.23;1.60;;;20.50;99.90;;;;;;5031904;28;20068;-65
2022/02/22 08:36:58;;;;;;;12.20;2.10;;;20.50;99.90;;;;;;5031998;28;20033;-65
2022/02/22 08:39:25;;;;;;;8.07;1.52;;;20.50;99.90;;;;;;5031734;28;20067;-65
2022/02/22 08:41:53;;;;;;;6.72;1.60;;;20.50;99.90;;;;;;5029045;28;20025;-65
2022/02/22 08:44:20;;;;;;;11.13;2.20;;;20.40;99.90;;;;;;5031155;28;20037;-65
2022/02/22 08:46:48;;;;;;;7.32;1.30;;;20.40;99.90;;;;;;5031711;28;20108;-65
2022/02/22 08:49:16;;;;;;;7.88;1.30;;;20.40;99.90;;;;;;5030933;28;20025;-66
2022/02/22 08:51:43;;;;;;;8.07;1.42;;;20.40;99.90;;;;;;5031963;28;20083;-66
2022/02/22 08:54:10;;;;;;;9.27;1.73;;;20.40;99.90;;;;;;5029957;28;20057;-66
2022/02/22 08:56:37;;;;;;;6.53;1.52;;;20.40;99.90;;;;;;5030708;28;20021;-66
2022/02/22 08:59:05;;;;;;;7.47;1.42;;;20.40;99.90;;;;;;5030893;28;20040;-66
2022/02/22 09:01:32;;;;;;;6.80;1.70;;;20.40;99.90;;;;;;5031027;28;20025;-66
2022/02/22 09:03:59;;;;;;;8.30;1.95;;;20.40;99.90;;;;;;5030617;28;20037;-66
2022/02/22 09:06:27;;;;;;;8.35;1.80;;;20.40;99.90;;;;;;5031511;28;20029;-66
2022/02/22 09:08:54;;;;;;;4.97;1.50;;;20.40;99.90;;;;;;5031232;28;20116;-66
2022/02/22 09:11:21;;;;;;;7.60;1.48;;;20.40;99.90;;;;;;5026846;28;20386;-65
2022/02/22 09:13:49;;;;;;;7.25;1.88;;;20.30;99.90;;;;;;5023046;28;20104;-66
2022/02/22 09:16:16;;;;;;;8.35;2.20;;;20.30;99.90;;;;;;5030967;28;20409;-66
2022/02/22 09:18:43;;;;;;;9.32;2.10;;;20.20;99.90;;;;;;5029928;28;20025;-66
2022/02/22 09:21:11;;;;;;;15.70;3.88;;;20.30;99.90;;;;;;5031008;28;20025;-66
2022/02/22 09:23:38;;;;;;;10.43;2.95;;;20.30;99.90;;;;;;5031169;28;20037;-65
2022/02/22 09:26:05;;;;;;;28.77;3.00;;;20.40;99.90;;;;;;5033360;28;20037;-65
2022/02/22 09:28:33;;;;;;;6.93;2.38;;;20.40;99.90;;;;;;5035100;28;20041;-65
2022/02/22 09:31:00;;;;;;;7.38;3.38;;;20.30;99.90;;;;;;5016511;28;20541;-65
2022/02/22 09:33:27;;;;;;;7.13;2.70;;;20.30;99.90;;;;;;5000370;28;20022;-66
2022/02/22 09:35:55;;;;;;;8.38;2.72;;;20.20;99.90;;;;;;5033400;28;20033;-66
2022/02/22 09:38:22;;;;;;;6.72;1.83;;;20.20;99.90;;;;;;5035053;28;20507;-66
2022/02/22 09:40:49;;;;;;;4.47;1.77;;;20.30;99.90;;;;;;5034676;28;20099;-66
2022/02/22 09:43:17;;;;;;;2.78;1.00;;;20.20;99.90;;;;;;5030554;28;20037;-65
2022/02/22 09:45:45;;;;;;;5.10;1.92;;;20.20;99.90;;;;;;5013941;28;20025;-65
2022/02/22 09:51:35;;;;;;;7.97;1.50;;;20.10;99.90;;;;;;5029914;28;20452;-65
2022/02/22 09:54:02;;;;;;;7.18;1.20;;;20.10;99.90;;;;;;5022330;28;20068;-65
2022/02/22 09:56:29;;;;;;;15.15;2.38;;;20.10;99.90;;;;;;5034206;28;20022;-65
2022/02/22 09:58:57;;;;;;;5.45;0.80;;;20.10;99.90;;;;;;5033663;28;20424;-65
2022/02/22 10:01:25;;;;;;;6.22;1.08;;;20.00;99.90;;;;;;5033047;28;20045;-65
2022/02/22 10:04:01;;;;;;;4.30;1.00;;;20.00;99.90;;;;;;5012942;28;20422;-66
2022/02/22 10:06:30;;;;;;;6.03;1.00;;;20.10;99.90;;;;;;5030926;28;20592;-65
2022/02/22 10:08:59;;;;;;;2.72;0.73;;;20.00;99.90;;;;;;5034016;28;20065;-65
2022/02/22 10:11:27;;;;;;;3.13;0.95;;;20.00;99.90;;;;;;5034032;28;20381;-65
2022/02/22 10:14:04;;;;;;;5.18;0.63;;;20.00;99.90;;;;;;5034162;28;20017;-65
2022/02/22 10:16:42;;;;;;;2.78;0.65;;;20.10;99.90;;;;;;5033608;28;20551;-65
2022/02/22 10:19:17;;;;;;;3.47;0.88;;;20.10;99.90;;;;;;5014453;28;20107;-66
2022/02/22 10:21:51;;;;;;;2.55;0.60;;;20.10;99.90;;;;;;5010217;28;20064;-66
2022/02/22 10:24:20;;;;;;;;;;;20.10;99.90;;;;;;5016341;28;20072;-65
2022/02/22 10:27:03;;;;;;;2.00;0.50;;;20.10;99.90;;;;;;5029672;28;19909;-65
2022/02/22 10:29:35;;;;;;;5.43;1.08;;;20.10;99.90;;;;;;5023203;28;20040;-65
2022/02/22 10:32:17;;;;;;;3.47;1.02;;;20.10;99.90;;;;;;5015116;28;20065;-65
2022/02/22 10:34:48;;;;;;;4.10;0.60;;;20.10;99.90;;;;;;5033744;28;20108;-65
2022/02/22 10:37:17;;;;;;;1.98;0.80;;;20.10;99.90;;;;;;5032977;28;20029;-65
2022/02/22 10:40:00;;;;;;;2.95;0.70;;;20.10;99.90;;;;;;5033965;28;20076;-65
2022/02/22 10:42:39;;;;;;;5.72;0.95;;;20.20;99.90;;;;;;5033398;28;20778;-66
2022/02/22 10:45:13;;;;;;;3.38;0.80;;;20.20;99.90;;;;;;5031588;28;20017;-65
2022/02/22 10:47:41;;;;;;;2.80;1.05;;;20.20;99.90;;;;;;5032808;28;20509;-65
2022/02/22 10:50:09;;;;;;;3.90;1.13;;;20.20;99.90;;;;;;5035198;28;20083;-65
2022/02/22 10:52:37;;;;;;;4.80;1.20;;;20.20;99.90;;;;;;5033104;28;21889;-65
2022/02/22 10:55:05;;;;;;;3.42;1.10;;;20.20;99.90;;;;;;5029347;28;20049;-64
2022/02/22 10:57:34;;;;;;;2.92;1.10;;;20.20;99.90;;;;;;5034627;28;20024;-65
2022/02/22 11:00:04;;;;;;;3.60;1.00;;;20.20;99.90;;;;;;5033677;28;20025;-64
2022/02/22 11:02:32;;;;;;;6.43;1.25;;;20.20;99.90;;;;;;5035153;28;20096;-65
2022/02/22 11:04:59;;;;;;;3.63;1.00;;;20.20;99.90;;;;;;5034792;28;20038;-65
2022/02/22 11:07:27;;;;;;;3.97;0.90;;;20.20;99.90;;;;;;5035727;28;20075;-66
2022/02/22 11:09:56;;;;;;;6.03;1.02;;;20.20;99.90;;;;;;5035532;28;20464;-65
2022/02/22 11:12:25;;;;;;;6.88;1.38;;;20.20;99.90;;;;;;5029625;28;20033;-67
2022/02/22 11:15:03;;;;;;;3.63;0.93;;;20.20;99.90;;;;;;5032977;28;20017;-66
2022/02/22 11:17:31;;;;;;;3.40;0.80;;;20.30;99.90;;;;;;5031238;28;20025;-66
2022/02/22 11:19:59;;;;;;;1.70;0.70;;;20.30;99.90;;;;;;5029716;28;20104;-66
2022/02/22 11:22:27;;;;;;;3.25;1.05;;;20.30;99.90;;;;;;5024796;28;20022;-67
2022/02/22 11:24:57;;;;;;;3.42;0.65;;;20.20;99.90;;;;;;5030765;28;20021;-67
2022/02/22 11:27:45;;;;;;;3.47;0.90;;;20.20;99.90;;;;;;5033209;28;20481;-67
2022/02/22 11:30:15;;;;;;;2.67;0.88;;;20.20;99.90;;;;;;5034595;28;20029;-67
2022/02/22 11:32:58;;;;;;;2.78;0.73;;;20.20;99.90;;;;;;5034497;28;20028;-66
2022/02/22 11:35:26;;;;;;;1.45;0.60;;;20.20;99.90;;;;;;5026761;28;20040;-67
2022/02/22 11:38:15;;;;;;;2.17;0.90;;;20.20;99.90;;;;;;5036281;28;20076;-67
2022/02/22 11:40:43;;;;;;;3.72;1.13;;;20.30;99.90;;;;;;5017149;28;20021;-66
2022/02/22 11:43:15;;;;;;;2.25;0.70;;;20.30;99.90;;;;;;5034142;28;20045;-66
2022/02/22 11:45:51;;;;;;;2.47;0.70;;;20.30;99.90;;;;;;5033762;28;20022;-66
2022/02/22 11:48:23;;;;;;;2.70;0.73;;;20.30;99.90;;;;;;5016056;28;20029;-66
2022/02/22 11:50:59;;;;;;;2.20;0.90;;;20.30;99.90;;;;;;5035070;28;20021;-65
2022/02/22 11:53:30;;;;;;;3.20;1.02;;;20.30;99.90;;;;;;5017825;28;20116;-65
2022/02/22 11:56:00;;;;;;;2.90;0.82;;;20.20;99.90;;;;;;5034302;28;20079;-66
2022/02/22 11:58:36;;;;;;;2.58;1.15;;;20.20;99.90;;;;;;5034610;28;20018;-65
2022/02/22 12:01:06;;;;;;;3.63;0.63;;;20.20;99.90;;;;;;5033526;28;20029;-65
2022/02/22 12:03:44;;;;;;;3.03;0.95;;;20.20;99.90;;;;;;5033555;28;20025;-66
2022/02/22 12:06:12;;;;;;;8.90;1.15;;;20.30;99.90;;;;;;5034617;28;20099;-66
2022/02/22 12:08:44;;;;;;;2.13;0.85;;;20.30;99.90;;;;;;5033947;28;20497;-66
2022/02/22 12:11:30;;;;;;;2.50;0.52;;;20.30;99.90;;;;;;5034389;28;20026;-66
2022/02/22 12:14:00;;;;;;;1.90;0.80;;;20.20;99.90;;;;;;5032703;28;20083;-66
2022/02/22 12:16:30;;;;;;;3.58;1.10;;;20.30;99.90;;;;;;5032744;28;20084;-65
2022/02/22 12:19:04;;;;;;;3.55;0.85;;;20.30;99.90;;;;;;5030347;28;20051;-66
2022/02/22 12:21:31;;;;;;;2.92;1.30;;;20.30;99.90;;;;;;5032640;28;20512;-65
2022/02/22 12:24:01;;;;;;;3.60;0.95;;;20.30;99.90;;;;;;5033069;28;20084;-65
2022/02/22 12:26:29;;;;;;;3.85;1.00;;;20.20;99.90;;;;;;5033023;28;20032;-66
2022/02/22 12:29:06;;;;;;;4.10;0.73;;;20.20;99.90;;;;;;5033778;28;20033;-65
2022/02/22 12:31:40;;;;;;;1.88;0.80;;;20.30;99.90;;;;;;5033632;28;20029;-66
2022/02/22 12:34:16;;;;;;;4.90;1.40;;;20.30;99.90;;;;;;5017380;28;20036;-65
2022/02/22 12:36:46;;;;;;;3.13;0.80;;;20.40;99.90;;;;;;5030740;28;20385;-65
2022/02/22 12:39:18;;;;;;;2.65;0.65;;;20.40;99.90;;;;;;5030205;28;20024;-65
2022/02/22 12:41:48;;;;;;;1.90;1.10;;;20.40;99.90;;;;;;5027470;28;20398;-64
2022/02/22 12:44:17;;;;;;;2.95;0.60;;;20.30;99.90;;;;;;5031037;28;20069;-65
2022/02/22 12:46:48;;;;;;;6.05;1.23;;;20.30;99.90;;;;;;5023905;28;20022;-65
2022/02/22 12:49:17;;;;;;;4.10;1.10;;;20.20;99.90;;;;;;5033604;28;20024;-65
2022/02/22 12:51:48;;;;;;;4.78;1.83;;;20.20;99.90;;;;;;5034225;28;20051;-65